createdAt,value
2023-04-16T00:02:01.566Z,97182.40
2023-04-16T00:04:28.384Z,97184.20
2023-04-16T00:06:55.373Z,97185.40
2023-04-16T00:09:22.021Z,97188.20
2023-04-16T00:11:48.633Z,97191.20
2023-04-16T00:14:15.226Z,97188.80
2023-04-16T00:16:41.846Z,97195.60
2023-04-16T00:19:08.815Z,97194.00
2023-04-16T00:21:35.575Z,97197.20
2023-04-16T00:24:02.308Z,97199.80
2023-04-16T00:26:28.974Z,97203.60
2023-04-16T00:28:55.665Z,97199.00
2023-04-16T00:31:31.041Z,97198.60
2023-04-16T00:33:59.240Z,97198.60
2023-04-16T00:36:27.916Z,97200.20
2023-04-16T00:38:56.457Z,97201.20
2023-04-16T00:41:23.866Z,97202.60
2023-04-16T00:43:51.735Z,97204.20
2023-04-16T00:46:24.653Z,97205.40
2023-04-16T00:48:54.169Z,97210.00
2023-04-16T00:51:21.619Z,97212.80
2023-04-16T00:53:48.950Z,97213.40
2023-04-16T00:56:17.545Z,97219.40
2023-04-16T00:58:45.228Z,97222.60
2023-04-16T01:01:14.257Z,97222.00
2023-04-16T01:03:46.310Z,97217.00
2023-04-16T01:06:14.092Z,97219.80
2023-04-16T01:08:40.786Z,97212.60
2023-04-16T01:11:07.921Z,97213.00
2023-04-16T01:13:39.137Z,97210.40
2023-04-16T01:16:08.328Z,97214.00
2023-04-16T01:18:36.752Z,97211.40
2023-04-16T01:21:04.986Z,97208.60
2023-04-16T01:23:31.914Z,97207.80
2023-04-16T01:25:58.614Z,97204.80
2023-04-16T01:28:25.449Z,97210.60
2023-04-16T01:30:52.129Z,97207.20
2023-04-16T01:33:37.010Z,97209.60
2023-04-16T01:36:04.119Z,97208.00
2023-04-16T01:38:30.774Z,97217.00
2023-04-16T01:40:59.447Z,97213.00
2023-04-16T01:43:26.326Z,97215.40
2023-04-16T01:46:20.434Z,97216.00
2023-04-16T01:48:48.427Z,97216.60
2023-04-16T01:51:15.010Z,97213.20
2023-04-16T01:53:41.638Z,97218.60
2023-04-16T01:56:08.221Z,97218.20
2023-04-16T01:58:35.957Z,97224.40
2023-04-16T02:01:02.867Z,97219.40
2023-04-16T02:03:31.441Z,97221.20
2023-04-16T02:05:58.280Z,97222.80
2023-04-16T02:08:25.357Z,97222.00
2023-04-16T02:10:52.457Z,97227.00
2023-04-16T02:13:19.091Z,97231.20
2023-04-16T02:15:49.289Z,97229.00
2023-04-16T02:18:20.157Z,97228.00
2023-04-16T02:20:49.739Z,97228.80
2023-04-16T02:23:17.689Z,97230.20
2023-04-16T02:25:46.839Z,97233.20
2023-04-16T02:28:16.787Z,97233.60
2023-04-16T02:30:45.152Z,97237.40
2023-04-16T02:33:12.859Z,97234.00
2023-04-16T02:35:43.439Z,97236.00
2023-04-16T02:38:10.080Z,97235.40
2023-04-16T02:40:37.018Z,97242.40
2023-04-16T02:43:03.769Z,97241.00
2023-04-16T02:45:31.549Z,97239.40
2023-04-16T02:47:58.708Z,97240.80
2023-04-16T02:50:25.535Z,97244.20
2023-04-16T02:52:52.555Z,97249.80
2023-04-16T02:55:19.171Z,97252.80
2023-04-16T02:57:45.991Z,97258.00
2023-04-16T03:00:13.334Z,97264.20
2023-04-16T03:02:40.134Z,97261.60
2023-04-16T03:05:08.994Z,97261.40
2023-04-16T03:07:35.915Z,97259.40
2023-04-16T03:10:02.679Z,97262.40
2023-04-16T03:12:29.267Z,97262.00
2023-04-16T03:14:56.007Z,97256.00
2023-04-16T03:17:22.703Z,97259.00
2023-04-16T03:19:50.921Z,97258.80
2023-04-16T03:22:19.533Z,97261.20
2023-04-16T03:24:46.478Z,97265.20
2023-04-16T03:27:13.064Z,97266.80
2023-04-16T03:29:39.732Z,97265.20
2023-04-16T03:32:07.229Z,97269.60
2023-04-16T03:34:33.840Z,97274.40
2023-04-16T03:37:00.703Z,97271.80
2023-04-16T03:39:27.349Z,97279.40
2023-04-16T03:41:53.974Z,97281.40
2023-04-16T03:44:20.852Z,97282.80
2023-04-16T03:46:47.596Z,97285.40
2023-04-16T03:49:14.338Z,97286.00
2023-04-16T03:51:41.337Z,97287.60
2023-04-16T03:54:08.028Z,97290.60
2023-04-16T03:56:34.787Z,97290.40
2023-04-16T03:59:01.973Z,97286.00
2023-04-16T04:01:28.890Z,97293.20
2023-04-16T04:03:55.625Z,97295.00
2023-04-16T04:06:22.431Z,97301.20
2023-04-16T04:08:49.101Z,97307.20
2023-04-16T04:11:16.187Z,97311.40
2023-04-16T04:13:43.213Z,97312.60
2023-04-16T04:16:09.918Z,97314.00
2023-04-16T04:18:37.171Z,97317.20
2023-04-16T04:21:09.798Z,97323.40
2023-04-16T04:23:37.044Z,97327.40
2023-04-16T04:26:05.878Z,97326.00
2023-04-16T04:28:34.399Z,97326.20
2023-04-16T04:31:02.174Z,97325.00
2023-04-16T04:33:30.168Z,97330.00
2023-04-16T04:35:57.204Z,97328.80
2023-04-16T04:38:25.345Z,97333.40
2023-04-16T04:40:53.053Z,97337.40
2023-04-16T04:43:20.992Z,97335.00
2023-04-16T04:45:49.316Z,97335.40
2023-04-16T04:48:16.893Z,97338.20
2023-04-16T04:50:46.406Z,97343.80
2023-04-16T04:53:14.983Z,97350.00
2023-04-16T04:55:42.053Z,97354.40
2023-04-16T04:58:09.140Z,97357.00
2023-04-16T05:00:37.115Z,97358.20
2023-04-16T05:03:09.648Z,97364.20
2023-04-16T05:05:36.309Z,97368.00
2023-04-16T05:08:03.048Z,97364.20
2023-04-16T05:10:29.619Z,97371.80
2023-04-16T05:12:56.443Z,97372.20
2023-04-16T05:15:23.370Z,97373.60
2023-04-16T05:17:49.960Z,97375.80
2023-04-16T05:20:16.849Z,97378.20
2023-04-16T05:22:43.452Z,97378.80
2023-04-16T05:25:10.378Z,97384.60
2023-04-16T05:27:37.280Z,97384.20
2023-04-16T05:30:04.801Z,97388.60
2023-04-16T05:32:31.468Z,97390.40
2023-04-16T05:34:58.151Z,97394.80
2023-04-16T05:37:24.823Z,97400.80
2023-04-16T05:39:51.434Z,97408.80
2023-04-16T05:42:18.251Z,97410.40
2023-04-16T05:44:44.833Z,97410.80
2023-04-16T05:47:11.434Z,97419.60
2023-04-16T05:49:38.104Z,97413.80
2023-04-16T05:52:05.696Z,97418.60
2023-04-16T05:54:32.272Z,97418.60
2023-04-16T05:57:02.105Z,97420.00
2023-04-16T05:59:29.322Z,97420.40
2023-04-16T06:01:56.180Z,97424.20
2023-04-16T06:04:23.017Z,97417.80
2023-04-16T06:06:49.578Z,97414.00
2023-04-16T06:09:16.669Z,97414.40
2023-04-16T06:11:43.308Z,97417.60
2023-04-16T06:14:09.933Z,97424.80
2023-04-16T06:16:36.538Z,97424.00
2023-04-16T06:19:03.103Z,97429.00
2023-04-16T06:21:29.901Z,97431.00
2023-04-16T06:23:56.528Z,97428.40
2023-04-16T06:26:23.196Z,97429.40
2023-04-16T06:28:50.515Z,97423.80
2023-04-16T06:31:17.200Z,97427.40
2023-04-16T06:33:43.960Z,97425.00
2023-04-16T06:36:11.539Z,97423.40
2023-04-16T06:38:38.482Z,97424.60
2023-04-16T06:41:05.813Z,97424.20
2023-04-16T06:43:33.808Z,97429.20
2023-04-16T06:46:00.711Z,97431.40
2023-04-16T06:48:28.089Z,97435.60
2023-04-16T06:50:56.159Z,97437.80
2023-04-16T06:53:23.796Z,97434.40
2023-04-16T06:55:50.433Z,97433.40
2023-04-16T06:58:17.000Z,97437.20
2023-04-16T07:00:43.659Z,97436.80
2023-04-16T07:03:10.653Z,97439.00
2023-04-16T07:05:37.393Z,97441.40
2023-04-16T07:08:04.090Z,97437.60
2023-04-16T07:10:31.308Z,97439.80
2023-04-16T07:12:58.023Z,97448.20
2023-04-16T07:15:24.739Z,97453.20
2023-04-16T07:17:51.370Z,97454.60
2023-04-16T07:20:18.228Z,97458.20
2023-04-16T07:22:45.012Z,97461.40
2023-04-16T07:25:11.627Z,97459.20
2023-04-16T07:27:38.231Z,97461.20
2023-04-16T07:30:06.130Z,97464.00
2023-04-16T07:32:32.811Z,97462.40
2023-04-16T07:34:59.602Z,97467.00
2023-04-16T07:37:26.279Z,97474.40
2023-04-16T07:39:53.160Z,97474.80
2023-04-16T07:42:19.864Z,97477.80
2023-04-16T07:44:46.476Z,97481.80
2023-04-16T07:47:13.061Z,97482.00
2023-04-16T07:49:39.780Z,97486.20
2023-04-16T07:52:06.593Z,97485.60
2023-04-16T07:54:33.318Z,97488.00
2023-04-16T07:56:59.961Z,97488.80
2023-04-16T07:59:26.760Z,97492.40
2023-04-16T08:01:54.383Z,97494.40
2023-04-16T08:04:25.706Z,97498.20
2023-04-16T08:06:53.854Z,97496.40
2023-04-16T08:09:23.621Z,97498.60
2023-04-16T08:11:50.769Z,97499.40
2023-04-16T08:14:17.831Z,97502.60
2023-04-16T08:16:44.511Z,97505.40
2023-04-16T08:19:11.342Z,97503.60
2023-04-16T08:21:38.180Z,97512.80
2023-04-16T08:24:05.490Z,97513.80
2023-04-16T08:26:32.095Z,97516.40
2023-04-16T08:28:58.742Z,97513.00
2023-04-16T08:31:25.601Z,97518.00
2023-04-16T08:33:52.324Z,97516.00
2023-04-16T08:36:19.008Z,97513.80
2023-04-16T08:38:45.660Z,97517.00
2023-04-16T08:41:14.117Z,97515.40
2023-04-16T08:43:47.523Z,97514.60
2023-04-16T08:46:17.711Z,97515.20
2023-04-16T08:48:50.081Z,97518.40
2023-04-16T08:51:20.016Z,97520.20
2023-04-16T08:53:53.690Z,97520.40
2023-04-16T08:56:24.058Z,97524.00
2023-04-16T08:58:54.897Z,97521.80
2023-04-16T09:01:22.244Z,97530.80
2023-04-16T09:03:49.410Z,97536.20
2023-04-16T09:06:18.287Z,97535.00
2023-04-16T09:08:48.853Z,97539.20
2023-04-16T09:11:18.191Z,97540.20
2023-04-16T09:13:47.041Z,97537.60
2023-04-16T09:16:15.318Z,97539.60
2023-04-16T09:18:42.361Z,97545.20
2023-04-16T09:21:13.534Z,97550.80
2023-04-16T09:23:41.189Z,97547.40
2023-04-16T09:26:07.790Z,97551.80
2023-04-16T09:28:48.910Z,97554.00
2023-04-16T09:31:19.436Z,97551.20
2023-04-16T09:34:09.648Z,97555.60
2023-04-16T09:36:37.106Z,97562.60
2023-04-16T09:39:04.236Z,97560.80
2023-04-16T09:41:35.999Z,97568.20
2023-04-16T09:44:05.215Z,97571.40
2023-04-16T09:46:36.245Z,97574.20
2023-04-16T09:49:17.104Z,97578.40
2023-04-16T09:51:47.234Z,97581.20
2023-04-16T09:54:14.075Z,97574.60
2023-04-16T09:56:44.848Z,97576.00
2023-04-16T09:59:22.516Z,97578.40
2023-04-16T10:01:51.029Z,97581.40
2023-04-16T10:04:17.853Z,97583.60
2023-04-16T10:06:46.935Z,97584.00
2023-04-16T10:09:13.548Z,97586.00
2023-04-16T10:11:40.623Z,97582.80
2023-04-16T10:14:07.364Z,97593.80
2023-04-16T10:16:35.289Z,97590.60
2023-04-16T10:19:02.397Z,97593.80
2023-04-16T10:21:34.064Z,97592.80
2023-04-16T10:24:01.893Z,97596.40
2023-04-16T10:26:31.080Z,97594.80
2023-04-16T10:28:59.492Z,97592.60
2023-04-16T10:31:27.834Z,97592.60
2023-04-16T10:33:56.253Z,97593.60
2023-04-16T10:36:26.339Z,97592.60
2023-04-16T10:38:59.893Z,97594.40
2023-04-16T10:41:27.522Z,97597.60
2023-04-16T10:44:11.294Z,97597.40
2023-04-16T10:46:41.339Z,97598.00
2023-04-16T10:49:17.910Z,97599.20
2023-04-16T10:51:59.722Z,97598.40
2023-04-16T10:54:31.199Z,97603.00
2023-04-16T10:57:05.989Z,97597.00
2023-04-16T10:59:38.466Z,97595.60
2023-04-16T11:02:13.744Z,97602.60
2023-04-16T11:04:45.787Z,97599.20
2023-04-16T11:07:18.531Z,97596.60
2023-04-16T11:09:46.764Z,97601.80
2023-04-16T11:12:16.459Z,97599.80
2023-04-16T11:14:48.297Z,97602.20
2023-04-16T11:17:14.943Z,97603.00
2023-04-16T11:19:43.827Z,97600.20
2023-04-16T11:22:17.006Z,97597.60
2023-04-16T11:24:46.267Z,97598.40
2023-04-16T11:27:15.300Z,97598.40
2023-04-16T11:29:43.542Z,97597.40
2023-04-16T11:32:22.703Z,97599.40
2023-04-16T11:34:49.442Z,97599.40
2023-04-16T11:37:20.241Z,97598.60
2023-04-16T11:39:52.544Z,97599.60
2023-04-16T11:42:22.854Z,97597.40
2023-04-16T11:44:58.003Z,97600.20
2023-04-16T11:47:25.069Z,97604.20
2023-04-16T11:49:51.734Z,97602.80
2023-04-16T11:52:33.713Z,97605.00
2023-04-16T11:55:00.368Z,97606.80
2023-04-16T11:57:32.098Z,97607.40
2023-04-16T12:00:01.685Z,97603.40
2023-04-16T12:02:42.326Z,97607.40
2023-04-16T12:05:32.254Z,97604.20
2023-04-16T12:08:04.555Z,97605.60
2023-04-16T12:10:35.496Z,97603.80
2023-04-16T12:13:12.851Z,97608.20
2023-04-16T12:15:51.675Z,97610.20
2023-04-16T12:18:26.085Z,97609.60
2023-04-16T12:20:53.124Z,97609.80
2023-04-16T12:23:29.714Z,97605.20
2023-04-16T12:26:02.536Z,97603.60
2023-04-16T12:28:34.877Z,97607.80
2023-04-16T12:31:03.243Z,97607.20
2023-04-16T12:33:30.807Z,97605.20
2023-04-16T12:35:57.614Z,97603.60
2023-04-16T12:38:25.591Z,97601.40
2023-04-16T12:40:56.510Z,97602.80
2023-04-16T12:43:24.050Z,97602.80
2023-04-16T12:45:50.974Z,97604.20
2023-04-16T12:48:17.662Z,97606.00
2023-04-16T12:50:44.610Z,97602.80
2023-04-16T12:53:12.024Z,97604.60
2023-04-16T12:55:38.802Z,97608.80
2023-04-16T12:58:05.777Z,97604.40
2023-04-16T13:00:32.824Z,97601.60
2023-04-16T13:02:59.494Z,97603.00
2023-04-16T13:05:27.113Z,97605.40
2023-04-16T13:07:54.161Z,97607.00
2023-04-16T13:10:22.091Z,97607.00
2023-04-16T13:12:49.154Z,97605.20
2023-04-16T13:15:16.182Z,97608.40
2023-04-16T13:17:42.870Z,97612.40
2023-04-16T13:20:10.524Z,97614.60
2023-04-16T13:22:37.544Z,97608.00
2023-04-16T13:25:05.125Z,97604.80
2023-04-16T13:27:32.647Z,97605.40
2023-04-16T13:29:59.342Z,97602.80
2023-04-16T13:32:26.007Z,97605.20
2023-04-16T13:34:52.689Z,97604.00
2023-04-16T13:37:19.340Z,97607.80
2023-04-16T13:39:45.942Z,97604.40
2023-04-16T13:42:12.520Z,97614.00
2023-04-16T13:44:39.094Z,97607.20
2023-04-16T13:47:06.338Z,97609.40
2023-04-16T13:49:35.925Z,97603.80
2023-04-16T13:52:03.362Z,97603.20
2023-04-16T13:54:29.993Z,97605.80
2023-04-16T13:56:56.902Z,97606.60
2023-04-16T13:59:23.577Z,97606.60
2023-04-16T14:01:51.048Z,97610.20
2023-04-16T14:04:18.308Z,97612.80
2023-04-16T14:06:45.239Z,97614.80
2023-04-16T14:09:11.953Z,97616.20
2023-04-16T14:11:38.818Z,97615.40
2023-04-16T14:14:06.060Z,97618.20
2023-04-16T14:16:33.781Z,97617.20
2023-04-16T14:19:00.445Z,97615.20
2023-04-16T14:21:27.362Z,97612.20
2023-04-16T14:23:54.114Z,97609.80
2023-04-16T14:26:20.718Z,97610.40
2023-04-16T14:28:48.016Z,97610.00
2023-04-16T14:31:14.855Z,97604.80
2023-04-16T14:33:41.563Z,97604.40
2023-04-16T14:36:08.298Z,97608.80
2023-04-16T14:38:35.031Z,97609.80
2023-04-16T14:41:01.742Z,97612.60
2023-04-16T14:43:28.463Z,97615.60
2023-04-16T14:45:55.191Z,97613.40
2023-04-16T14:48:22.209Z,97620.80
2023-04-16T14:50:49.043Z,97617.20
2023-04-16T14:53:16.005Z,97618.40
2023-04-16T14:55:42.703Z,97620.60
2023-04-16T14:58:10.808Z,97625.40
2023-04-16T15:00:37.829Z,97621.00
2023-04-16T15:03:05.880Z,97618.40
2023-04-16T15:05:32.908Z,97615.20
2023-04-16T15:08:00.500Z,97619.60
2023-04-16T15:10:27.480Z,97620.80
2023-04-16T15:12:54.249Z,97620.00
2023-04-16T15:15:21.469Z,97618.80
2023-04-16T15:17:50.406Z,97618.40
2023-04-16T15:20:17.580Z,97615.20
2023-04-16T15:22:44.316Z,97616.80
2023-04-16T15:25:11.478Z,97609.60
2023-04-16T15:27:38.139Z,97611.80
2023-04-16T15:30:06.484Z,97620.20
2023-04-16T15:32:33.213Z,97617.20
2023-04-16T15:35:03.398Z,97620.80
2023-04-16T15:37:30.273Z,97620.20
2023-04-16T15:39:57.296Z,97622.40
2023-04-16T15:42:24.698Z,97624.20
2023-04-16T15:44:51.376Z,97619.20
2023-04-16T15:47:18.084Z,97618.80
2023-04-16T15:49:44.909Z,97621.00
2023-04-16T15:52:12.173Z,97626.60
2023-04-16T15:54:39.037Z,97632.00
2023-04-16T15:57:06.469Z,97636.20
2023-04-16T15:59:33.089Z,97634.20
2023-04-16T16:01:59.859Z,97633.20
2023-04-16T16:04:28.266Z,97634.00
2023-04-16T16:06:55.661Z,97640.40
2023-04-16T16:09:26.455Z,97639.60
2023-04-16T16:11:54.450Z,97644.20
2023-04-16T16:14:23.049Z,97640.80
2023-04-16T16:16:49.681Z,97644.40
2023-04-16T16:19:19.104Z,97644.40
2023-04-16T16:21:45.930Z,97645.40
2023-04-16T16:24:12.587Z,97644.20
2023-04-16T16:26:39.384Z,97644.60
2023-04-16T16:29:07.152Z,97648.20
2023-04-16T16:31:33.948Z,97652.40
2023-04-16T16:34:01.200Z,97648.80
2023-04-16T16:36:29.678Z,97650.80
2023-04-16T16:38:57.328Z,97648.20
2023-04-16T16:41:24.490Z,97646.80
2023-04-16T16:43:51.416Z,97650.40
2023-04-16T16:46:18.095Z,97654.00
2023-04-16T16:48:44.750Z,97653.20
2023-04-16T16:51:11.634Z,97654.40
2023-04-16T16:53:38.316Z,97653.40
2023-04-16T16:56:05.690Z,97653.40
2023-04-16T16:58:33.668Z,97655.80
2023-04-16T17:01:00.434Z,97653.00
2023-04-16T17:03:27.145Z,97653.80
2023-04-16T17:05:54.240Z,97655.40
2023-04-16T17:08:20.853Z,97658.00
2023-04-16T17:10:48.011Z,97659.00
2023-04-16T17:13:19.566Z,97662.00
2023-04-16T17:15:46.978Z,97667.40
2023-04-16T17:18:13.843Z,97666.80
2023-04-16T17:20:41.023Z,97670.20
2023-04-16T17:23:08.078Z,97672.00
2023-04-16T17:25:35.083Z,97670.60
2023-04-16T17:28:02.761Z,97674.20
2023-04-16T17:30:31.696Z,97678.40
2023-04-16T17:32:58.434Z,97675.40
2023-04-16T17:35:25.341Z,97679.40
2023-04-16T17:37:52.260Z,97677.60
2023-04-16T17:40:19.303Z,97677.00
2023-04-16T17:42:46.178Z,97682.00
2023-04-16T17:45:13.031Z,97682.80
2023-04-16T17:47:39.780Z,97682.20
2023-04-16T17:50:08.645Z,97685.20
2023-04-16T17:52:35.488Z,97692.00
2023-04-16T17:55:03.551Z,97692.60
2023-04-16T17:57:30.805Z,97695.40
2023-04-16T17:59:57.625Z,97700.20
2023-04-16T18:02:24.530Z,97699.80
2023-04-16T18:04:51.987Z,97702.80
2023-04-16T18:07:19.411Z,97702.40
2023-04-16T18:09:46.058Z,97705.20
2023-04-16T18:12:12.670Z,97703.20
2023-04-16T18:14:40.749Z,97712.80
2023-04-16T18:17:07.562Z,97715.80
2023-04-16T18:19:35.474Z,97716.40
2023-04-16T18:22:02.566Z,97717.00
2023-04-16T18:24:29.289Z,97723.60
2023-04-16T18:26:56.723Z,97722.60
2023-04-16T18:29:25.265Z,97727.80
2023-04-16T18:31:52.421Z,97723.80
2023-04-16T18:34:19.308Z,97733.40
2023-04-16T18:36:46.199Z,97730.60
2023-04-16T18:39:12.947Z,97734.00
2023-04-16T18:41:43.632Z,97735.00
2023-04-16T18:44:13.202Z,97740.60
2023-04-16T18:46:39.883Z,97736.80
2023-04-16T18:49:06.604Z,97742.20
2023-04-16T18:51:33.221Z,97748.40
2023-04-16T18:53:59.826Z,97747.20
2023-04-16T18:56:29.228Z,97749.40
2023-04-16T18:58:55.814Z,97751.20
2023-04-16T19:01:22.586Z,97753.60
2023-04-16T19:03:49.348Z,97759.80
2023-04-16T19:06:15.952Z,97761.00
2023-04-16T19:08:42.544Z,97765.20
2023-04-16T19:11:09.157Z,97770.00
2023-04-16T19:13:36.549Z,97769.00
2023-04-16T19:16:05.991Z,97771.60
2023-04-16T19:18:33.184Z,97771.20
2023-04-16T19:21:03.142Z,97771.80
2023-04-16T19:23:29.940Z,97767.00
2023-04-16T19:25:57.038Z,97766.80
2023-04-16T19:28:25.475Z,97767.00
2023-04-16T19:30:53.854Z,97762.40
2023-04-16T19:33:20.693Z,97759.60
2023-04-16T19:35:47.379Z,97758.40
2023-04-16T19:38:14.129Z,97748.20
2023-04-16T19:40:44.431Z,97753.20
2023-04-16T19:43:11.011Z,97747.00
2023-04-16T19:45:47.475Z,97743.40
2023-04-16T19:48:14.570Z,97742.20
2023-04-16T19:50:42.612Z,97746.00
2023-04-16T19:53:09.595Z,97751.80
2023-04-16T19:55:36.832Z,97758.40
2023-04-16T19:58:06.601Z,97763.80
2023-04-16T20:00:36.382Z,97759.20
2023-04-16T20:03:04.973Z,97762.40
2023-04-16T20:05:31.868Z,97762.00
2023-04-16T20:07:58.576Z,97765.40
2023-04-16T20:10:26.489Z,97766.60
2023-04-16T20:12:53.342Z,97762.40
2023-04-16T20:15:20.282Z,97771.40
2023-04-16T20:17:47.081Z,97765.60
2023-04-16T20:20:15.801Z,97768.80
2023-04-16T20:22:43.732Z,97769.40
2023-04-16T20:25:11.670Z,97770.00
2023-04-16T20:27:38.381Z,97770.60
2023-04-16T20:30:06.227Z,97770.20
2023-04-16T20:32:33.112Z,97770.60
2023-04-16T20:34:59.929Z,97769.00
2023-04-16T20:37:29.157Z,97765.40
2023-04-16T20:39:56.413Z,97759.00
2023-04-16T20:42:26.261Z,97759.00
2023-04-16T20:44:56.520Z,97757.80
2023-04-16T20:47:23.771Z,97758.60
2023-04-16T20:49:50.624Z,97758.20
2023-04-16T20:52:17.213Z,97756.80
2023-04-16T20:54:44.414Z,97760.40
2023-04-16T20:57:11.083Z,97760.80
2023-04-16T20:59:37.677Z,97765.00
2023-04-16T21:02:05.397Z,97766.20
2023-04-16T21:04:32.314Z,97766.60
2023-04-16T21:07:03.100Z,97757.00
2023-04-16T21:09:30.950Z,97769.20
2023-04-16T21:11:57.816Z,97769.00
2023-04-16T21:14:24.436Z,97769.60
2023-04-16T21:16:51.347Z,97775.80
2023-04-16T21:19:18.177Z,97773.60
2023-04-16T21:21:44.972Z,97771.40
2023-04-16T21:24:11.599Z,97774.60
2023-04-16T21:26:38.205Z,97775.40
2023-04-16T21:29:04.841Z,97771.80
2023-04-16T21:31:31.682Z,97774.00
2023-04-16T21:33:58.455Z,97774.20
2023-04-16T21:36:27.550Z,97772.00
2023-04-16T21:38:54.529Z,97776.60
2023-04-16T21:41:21.262Z,97768.80
2023-04-16T21:43:47.885Z,97774.80
2023-04-16T21:46:14.692Z,97776.20
2023-04-16T21:48:41.395Z,97775.20
2023-04-16T21:51:08.241Z,97777.40
2023-04-16T21:53:35.308Z,97777.80
2023-04-16T21:56:01.955Z,97777.80
2023-04-16T21:58:28.540Z,97776.20
2023-04-16T22:00:55.185Z,97776.60
2023-04-16T22:03:26.490Z,97775.80
2023-04-16T22:06:03.280Z,97772.60
2023-04-16T22:08:30.637Z,97769.80
2023-04-16T22:11:02.878Z,97771.80
2023-04-16T22:13:32.527Z,97766.80
2023-04-16T22:16:03.358Z,97763.80
2023-04-16T22:18:33.659Z,97768.40
2023-04-16T22:21:01.351Z,97765.80
2023-04-16T22:23:27.985Z,97762.20
2023-04-16T22:25:56.064Z,97754.20
2023-04-16T22:28:23.370Z,97761.00
2023-04-16T22:30:50.081Z,97753.80
2023-04-16T22:33:17.020Z,97754.20
2023-04-16T22:35:43.702Z,97756.00
2023-04-16T22:38:10.662Z,97756.40
2023-04-16T22:40:37.338Z,97753.20
2023-04-16T22:43:04.637Z,97754.80
2023-04-16T22:45:31.495Z,97754.80
2023-04-16T22:47:58.193Z,97752.00
2023-04-16T22:50:24.942Z,97752.00
2023-04-16T22:52:51.522Z,97751.20
2023-04-16T22:55:18.414Z,97751.20
2023-04-16T22:57:44.993Z,97751.40
2023-04-16T23:00:16.287Z,97755.40
2023-04-16T23:02:43.840Z,97752.60
2023-04-16T23:05:11.739Z,97752.60
2023-04-16T23:07:38.636Z,97748.40
2023-04-16T23:10:06.265Z,97750.60
2023-04-16T23:12:32.849Z,97746.80
2023-04-16T23:15:00.681Z,97744.00
2023-04-16T23:17:28.037Z,97742.60
2023-04-16T23:19:54.829Z,97745.40
2023-04-16T23:22:21.501Z,97739.80
2023-04-16T23:24:48.104Z,97745.80
2023-04-16T23:27:14.735Z,97741.40
2023-04-16T23:29:41.345Z,97741.80
2023-04-16T23:32:08.008Z,97737.40
2023-04-16T23:34:34.666Z,97741.20
2023-04-16T23:37:01.312Z,97739.60
2023-04-16T23:39:27.921Z,97739.20
2023-04-16T23:41:54.517Z,97736.80
2023-04-16T23:44:21.105Z,97740.40
2023-04-16T23:46:47.710Z,97739.00
2023-04-16T23:49:14.359Z,97740.60
2023-04-16T23:51:41.272Z,97743.00
2023-04-16T23:54:07.841Z,97742.80
2023-04-16T23:56:34.395Z,97742.80
2023-04-16T23:59:01.007Z,97741.80
